createdAt,value
2018-09-03T00:01:14.127Z,2.90
2018-09-03T00:03:42.691Z,3.00
2018-09-03T00:06:11.381Z,3.80
2018-09-03T00:08:39.947Z,3.60
2018-09-03T00:11:08.571Z,4.00
2018-09-03T00:13:37.166Z,4.10
2018-09-03T00:16:05.933Z,4.47
2018-09-03T00:18:34.563Z,4.57
2018-09-03T00:21:03.198Z,4.43
2018-09-03T00:23:31.847Z,4.10
2018-09-03T00:26:00.467Z,4.37
2018-09-03T00:28:29.075Z,4.23
2018-09-03T00:31:16.730Z,3.90
2018-09-03T00:33:50.439Z,4.30
2018-09-03T00:36:24.470Z,3.77
2018-09-03T00:38:58.416Z,3.77
2018-09-03T00:41:32.374Z,4.27
2018-09-03T00:44:06.299Z,3.87
2018-09-03T00:46:40.152Z,4.07
2018-09-03T00:49:08.778Z,4.23
2018-09-03T00:51:37.606Z,3.90
2018-09-03T00:54:06.307Z,4.33
2018-09-03T00:56:34.943Z,4.30
2018-09-03T00:59:03.579Z,4.30
2018-09-03T01:01:32.342Z,4.10
2018-09-03T01:04:00.991Z,3.93
2018-09-03T01:06:29.612Z,4.10
2018-09-03T01:08:58.195Z,4.23
2018-09-03T01:11:27.106Z,4.10
2018-09-03T01:13:56.458Z,4.30
2018-09-03T01:16:25.082Z,4.20
2018-09-03T01:18:56.302Z,3.90
2018-09-03T01:21:25.842Z,4.23
2018-09-03T01:23:55.023Z,4.13
2018-09-03T01:26:23.639Z,4.33
2018-09-03T01:28:52.562Z,4.00
2018-09-03T01:31:26.399Z,3.87
2018-09-03T01:33:55.328Z,4.00
2018-09-03T01:36:23.903Z,3.60
2018-09-03T01:38:52.435Z,3.50
2018-09-03T01:44:18.982Z,3.17
2018-09-03T01:46:47.623Z,3.43
2018-09-03T01:49:16.269Z,3.20
2018-09-03T01:51:44.866Z,3.50
2018-09-03T01:54:13.423Z,3.20
2018-09-03T01:56:42.091Z,2.93
2018-09-03T01:59:10.730Z,2.93
2018-09-03T02:01:39.358Z,3.10
2018-09-03T02:04:07.955Z,3.60
2018-09-03T02:06:36.584Z,3.33
2018-09-03T02:09:08.653Z,2.97
2018-09-03T02:11:37.317Z,2.97
2018-09-03T02:14:06.286Z,3.00
2018-09-03T02:16:35.159Z,2.60
2018-09-03T02:19:03.727Z,3.20
2018-09-03T02:21:46.063Z,3.17
2018-09-03T02:24:14.721Z,3.40
2018-09-03T02:26:43.410Z,2.97
2018-09-03T02:29:12.022Z,2.93
2018-09-03T02:31:40.715Z,3.10
2018-09-03T02:34:09.303Z,2.83
2018-09-03T02:36:37.875Z,3.20
2018-09-03T02:39:07.672Z,3.27
2018-09-03T02:41:36.369Z,3.30
2018-09-03T02:44:05.080Z,3.20
2018-09-03T02:46:33.747Z,3.20
2018-09-03T02:49:02.387Z,2.90
2018-09-03T02:57:16.993Z,3.17
2018-09-03T02:59:59.291Z,2.80
2018-09-03T03:02:27.875Z,3.23
2018-09-03T03:04:56.471Z,2.90
2018-09-03T03:07:25.075Z,2.87
2018-09-03T03:09:53.879Z,2.97
2018-09-03T03:12:22.502Z,2.80
2018-09-03T03:14:52.958Z,3.17
2018-09-03T03:17:22.246Z,2.53
2018-09-03T03:19:51.141Z,2.90
2018-09-03T03:22:20.198Z,2.60
2018-09-03T03:24:49.117Z,2.63
2018-09-03T03:27:17.739Z,2.63
2018-09-03T03:29:51.682Z,2.80
2018-09-03T03:32:20.375Z,2.60
2018-09-03T03:34:48.975Z,2.50
2018-09-03T03:37:17.649Z,2.70
2018-09-03T03:39:46.250Z,2.30
2018-09-03T03:42:14.854Z,2.60
2018-09-03T03:44:44.555Z,2.40
2018-09-03T03:47:13.209Z,2.90
2018-09-03T03:49:41.834Z,2.20
2018-09-03T03:52:10.430Z,2.90
2018-09-03T03:54:39.026Z,2.57
2018-09-03T03:57:07.878Z,2.33
2018-09-03T03:59:37.496Z,2.70
2018-09-03T04:02:06.202Z,2.73
2018-09-03T04:04:34.829Z,2.60
2018-09-03T04:07:03.455Z,2.40
2018-09-03T04:09:32.125Z,2.97
2018-09-03T04:12:00.637Z,3.03
2018-09-03T04:14:29.196Z,2.70
2018-09-03T04:16:57.819Z,2.40
2018-09-03T04:19:26.459Z,2.40
2018-09-03T04:21:55.044Z,2.63
2018-09-03T04:24:23.614Z,2.63
2018-09-03T04:26:52.843Z,3.07
2018-09-03T04:29:21.452Z,3.20
2018-09-03T04:31:50.103Z,2.53
2018-09-03T04:34:18.767Z,2.97
2018-09-03T04:36:47.391Z,3.40
2018-09-03T04:39:16.012Z,2.93
2018-09-03T04:41:44.702Z,3.20
2018-09-03T04:44:13.439Z,3.00
2018-09-03T04:46:42.097Z,3.23
2018-09-03T04:49:10.787Z,4.10
2018-09-03T04:51:44.682Z,3.30
2018-09-03T04:54:13.307Z,3.17
2018-09-03T04:56:41.867Z,3.03
2018-09-03T04:59:10.482Z,3.20
2018-09-03T05:04:54.473Z,2.90
2018-09-03T05:07:23.200Z,2.70
2018-09-03T05:10:01.396Z,3.30
2018-09-03T05:12:30.108Z,2.60
2018-09-03T05:14:58.785Z,3.07
2018-09-03T05:17:27.471Z,2.73
2018-09-03T05:20:10.682Z,3.00
2018-09-03T05:22:39.318Z,2.40
2018-09-03T05:25:07.934Z,2.97
2018-09-03T05:27:36.639Z,2.60
2018-09-03T05:32:58.623Z,2.70
2018-09-03T05:35:27.250Z,2.93
2018-09-03T05:37:55.861Z,2.77
2018-09-03T05:40:24.653Z,2.57
2018-09-03T05:42:53.274Z,2.47
2018-09-03T05:45:21.894Z,3.00
2018-09-03T05:47:50.490Z,2.80
2018-09-03T05:50:19.095Z,3.00
2018-09-03T05:52:47.752Z,3.27
2018-09-03T05:55:16.491Z,2.90
2018-09-03T05:57:45.119Z,3.13
2018-09-03T06:00:13.692Z,3.40
2018-09-03T06:02:42.255Z,3.17
2018-09-03T06:05:10.952Z,3.37
2018-09-03T06:07:40.756Z,3.57
2018-09-03T06:10:09.427Z,3.63
2018-09-03T06:12:38.146Z,3.67
2018-09-03T06:15:06.734Z,3.17
2018-09-03T06:17:35.314Z,3.27
2018-09-03T06:20:03.954Z,3.37
2018-09-03T06:22:32.540Z,3.60
2018-09-03T06:25:01.134Z,3.20
2018-09-03T06:27:29.754Z,3.30
2018-09-03T06:29:58.695Z,3.80
2018-09-03T06:32:27.298Z,3.30
2018-09-03T06:34:55.898Z,3.20
2018-09-03T06:37:24.600Z,3.40
2018-09-03T06:39:53.234Z,3.00
2018-09-03T06:42:21.922Z,2.80
2018-09-03T06:44:50.619Z,3.33
2018-09-03T06:47:19.274Z,3.37
2018-09-03T06:49:47.920Z,3.47
2018-09-03T06:52:16.547Z,2.67
2018-09-03T06:54:45.187Z,3.20
2018-09-03T06:57:14.000Z,3.93
2018-09-03T06:59:42.665Z,5.60
2018-09-03T07:02:11.231Z,4.10
2018-09-03T07:04:39.964Z,4.03
2018-09-03T07:07:08.855Z,3.50
2018-09-03T07:09:37.514Z,3.37
2018-09-03T07:12:06.186Z,3.30
2018-09-03T07:14:34.799Z,3.30
2018-09-03T07:17:03.466Z,3.33
2018-09-03T07:19:32.098Z,3.40
2018-09-03T07:22:00.734Z,2.97
2018-09-03T07:24:29.335Z,3.47
2018-09-03T07:26:57.990Z,3.63
2018-09-03T07:29:26.743Z,4.03
2018-09-03T07:31:55.361Z,4.43
2018-09-03T07:34:24.134Z,3.60
2018-09-03T07:36:52.762Z,4.27
2018-09-03T07:39:21.463Z,4.30
2018-09-03T07:41:50.044Z,4.00
2018-09-03T07:44:18.731Z,3.40
2018-09-03T07:46:47.375Z,3.80
2018-09-03T07:49:15.983Z,4.03
2018-09-03T07:51:44.564Z,3.93
2018-09-03T07:54:13.177Z,3.90
2018-09-03T07:56:41.807Z,3.30
2018-09-03T07:59:10.471Z,3.70
2018-09-03T08:01:39.140Z,3.90
2018-09-03T08:04:07.872Z,2.63
2018-09-03T08:06:36.431Z,2.97
2018-09-03T08:09:07.236Z,3.23
2018-09-03T08:11:36.367Z,3.20
2018-09-03T08:14:04.987Z,3.30
2018-09-03T08:16:33.507Z,3.30
2018-09-03T08:19:02.171Z,3.93
2018-09-03T08:21:30.842Z,3.47
2018-09-03T08:23:59.495Z,3.73
2018-09-03T08:26:28.058Z,3.30
2018-09-03T08:28:56.675Z,3.00
2018-09-03T08:31:25.268Z,2.43
2018-09-03T08:33:54.123Z,2.30
2018-09-03T08:36:22.698Z,2.50
2018-09-03T08:38:51.344Z,2.73
2018-09-03T08:41:19.955Z,2.80
2018-09-03T08:43:48.574Z,3.20
2018-09-03T08:46:17.455Z,3.47
2018-09-03T08:48:46.055Z,3.63
2018-09-03T08:51:14.648Z,4.27
2018-09-03T08:53:43.320Z,4.37
2018-09-03T08:56:12.148Z,4.73
2018-09-03T08:58:40.935Z,4.50
2018-09-03T09:01:09.602Z,4.10
2018-09-03T09:03:43.447Z,4.60
2018-09-03T09:06:12.474Z,3.93
2018-09-03T09:08:41.275Z,3.70
2018-09-03T09:11:10.251Z,3.73
2018-09-03T09:13:38.999Z,3.57
2018-09-03T09:16:07.654Z,3.27
2018-09-03T09:18:36.288Z,3.40
2018-09-03T09:21:05.006Z,3.30
2018-09-03T09:23:33.756Z,3.43
2018-09-03T09:26:02.384Z,4.10
2018-09-03T09:28:30.983Z,4.33
2018-09-03T09:30:59.786Z,3.47
2018-09-03T09:33:28.546Z,2.90
2018-09-03T09:35:57.240Z,2.87
2018-09-03T09:38:25.743Z,2.93
2018-09-03T09:40:54.542Z,3.00
2018-09-03T09:43:23.123Z,3.00
2018-09-03T09:45:51.803Z,3.07
2018-09-03T09:48:20.457Z,2.70
2018-09-03T09:50:49.061Z,2.70
2018-09-03T09:53:17.649Z,2.83
2018-09-03T09:55:46.323Z,2.87
2018-09-03T09:58:15.012Z,2.70
2018-09-03T10:00:48.931Z,2.80
2018-09-03T10:03:17.481Z,2.70
2018-09-03T10:05:46.106Z,2.67
2018-09-03T10:08:14.752Z,2.40
2018-09-03T10:10:43.423Z,2.37
2018-09-03T10:13:12.041Z,2.50
2018-09-03T10:15:40.707Z,2.60
2018-09-03T10:18:09.413Z,2.50
2018-09-03T10:20:38.076Z,2.20
2018-09-03T10:23:07.030Z,2.40
2018-09-03T10:25:35.713Z,2.13
2018-09-03T10:28:04.347Z,2.00
2018-09-03T10:30:33.071Z,1.53
2018-09-03T10:33:01.679Z,2.30
2018-09-03T10:35:30.606Z,2.10
2018-09-03T10:37:59.303Z,1.87
2018-09-03T10:40:27.996Z,1.70
2018-09-03T10:42:56.979Z,1.80
2018-09-03T10:45:25.660Z,1.50
2018-09-03T10:47:54.299Z,1.93
2018-09-03T10:50:22.917Z,1.60
2018-09-03T10:52:51.578Z,1.57
2018-09-03T10:55:20.208Z,1.70
2018-09-03T10:57:48.767Z,1.70
2018-09-03T11:00:22.355Z,1.77
2018-09-03T11:02:50.960Z,1.60
2018-09-03T11:05:19.656Z,1.40
2018-09-03T11:07:48.367Z,1.37
2018-09-03T11:10:16.981Z,1.50
2018-09-03T11:12:45.662Z,1.30
2018-09-03T11:15:14.251Z,1.73
2018-09-03T11:17:43.076Z,1.50
2018-09-03T11:20:15.308Z,1.47
2018-09-03T11:22:43.996Z,1.40
2018-09-03T11:25:12.734Z,1.43
2018-09-03T11:27:41.410Z,1.40
2018-09-03T11:30:10.127Z,1.63
2018-09-03T11:32:38.780Z,1.80
2018-09-03T11:35:07.522Z,1.60
2018-09-03T11:37:36.120Z,1.67
2018-09-03T11:40:04.867Z,1.60
2018-09-03T11:42:33.591Z,1.60
2018-09-03T11:45:02.290Z,1.70
2018-09-03T11:47:30.959Z,1.90
2018-09-03T11:49:59.652Z,1.63
2018-09-03T11:52:28.222Z,1.70
2018-09-03T11:54:56.843Z,1.47
2018-09-03T11:57:25.580Z,1.40
2018-09-03T11:59:54.355Z,1.40
2018-09-03T12:02:23.023Z,1.60
2018-09-03T12:04:51.675Z,1.50
2018-09-03T12:07:20.327Z,1.60
2018-09-03T12:09:48.936Z,1.53
2018-09-03T12:12:17.607Z,1.53
2018-09-03T12:14:48.675Z,1.90
2018-09-03T12:17:17.441Z,1.90
2018-09-03T12:19:46.143Z,1.80
2018-09-03T12:22:14.817Z,1.60
2018-09-03T12:24:43.516Z,1.80
2018-09-03T12:27:12.102Z,1.97
2018-09-03T12:29:40.745Z,1.70
2018-09-03T12:32:09.488Z,2.00
2018-09-03T12:34:38.158Z,1.83
2018-09-03T12:37:06.898Z,2.10
2018-09-03T12:39:35.479Z,1.80
2018-09-03T12:42:04.100Z,2.10
2018-09-03T12:44:32.816Z,1.83
2018-09-03T12:47:01.556Z,2.10
2018-09-03T12:49:30.214Z,2.33
2018-09-03T12:51:58.851Z,2.20
2018-09-03T12:54:27.525Z,2.00
2018-09-03T12:56:56.171Z,1.70
2018-09-03T12:59:24.848Z,1.70
2018-09-03T13:01:53.467Z,2.03
2018-09-03T13:04:22.166Z,1.83
2018-09-03T13:06:50.736Z,1.90
2018-09-03T13:09:19.410Z,2.00
2018-09-03T13:11:48.088Z,1.67
2018-09-03T13:14:16.801Z,2.20
2018-09-03T13:16:45.477Z,1.53
2018-09-03T13:19:14.303Z,2.20
2018-09-03T13:21:43.002Z,1.73
2018-09-03T13:24:11.667Z,1.80
2018-09-03T13:26:40.403Z,2.20
2018-09-03T13:29:09.039Z,1.83
2018-09-03T13:31:37.750Z,2.03
2018-09-03T13:34:06.464Z,2.33
2018-09-03T13:36:35.449Z,1.70
2018-09-03T13:39:05.041Z,1.90
2018-09-03T13:41:33.767Z,2.43
2018-09-03T13:44:02.361Z,2.03
2018-09-03T13:46:31.019Z,2.30
2018-09-03T13:48:59.662Z,1.90
2018-09-03T13:51:28.311Z,2.17
2018-09-03T13:53:57.015Z,2.10
2018-09-03T13:56:25.743Z,1.93
2018-09-03T13:58:54.447Z,1.93
2018-09-03T14:01:28.274Z,2.00
2018-09-03T14:03:56.961Z,2.10
2018-09-03T14:06:25.651Z,2.20
2018-09-03T14:08:54.299Z,2.40
2018-09-03T14:11:23.027Z,2.00
2018-09-03T14:13:51.696Z,2.13
2018-09-03T14:16:20.393Z,2.23
2018-09-03T14:18:49.075Z,1.87
2018-09-03T14:21:17.818Z,1.90
2018-09-03T14:23:46.458Z,2.20
2018-09-03T14:26:15.151Z,2.20
2018-09-03T14:28:43.823Z,2.03
2018-09-03T14:31:12.500Z,2.40
2018-09-03T14:33:41.116Z,2.40
2018-09-03T14:36:09.795Z,2.37
2018-09-03T14:38:38.459Z,2.07
2018-09-03T14:41:07.919Z,2.17
2018-09-03T14:43:36.610Z,2.10
2018-09-03T14:46:05.251Z,2.20
2018-09-03T14:48:33.879Z,2.00
2018-09-03T14:51:02.539Z,1.93
2018-09-03T14:53:31.154Z,2.20
2018-09-03T14:55:59.745Z,2.40
2018-09-03T14:58:28.339Z,2.37
2018-09-03T15:00:56.980Z,2.30
2018-09-03T15:03:25.608Z,2.03
2018-09-03T15:05:54.282Z,2.20
2018-09-03T15:08:23.015Z,2.57
2018-09-03T15:10:51.631Z,2.83
2018-09-03T15:13:20.247Z,2.50
2018-09-03T15:15:48.819Z,3.57
2018-09-03T15:18:17.378Z,2.13
2018-09-03T15:20:46.485Z,2.50
2018-09-03T15:23:15.091Z,2.47
2018-09-03T15:25:43.727Z,2.40
2018-09-03T15:28:12.321Z,2.47
2018-09-03T15:30:40.946Z,2.40
2018-09-03T15:33:09.619Z,2.40
2018-09-03T15:35:38.375Z,2.60
2018-09-03T15:38:06.999Z,2.70
2018-09-03T15:40:35.677Z,2.30
2018-09-03T15:43:04.443Z,2.43
2018-09-03T15:45:32.978Z,2.40
2018-09-03T15:48:01.641Z,2.80
2018-09-03T15:50:30.202Z,3.10
2018-09-03T15:52:58.828Z,2.53
2018-09-03T15:55:27.431Z,2.30
2018-09-03T15:57:56.239Z,2.63
2018-09-03T16:00:24.890Z,2.80
2018-09-03T16:02:53.533Z,2.47
2018-09-03T16:05:22.113Z,2.10
2018-09-03T16:07:50.763Z,2.30
2018-09-03T16:10:19.431Z,2.40
2018-09-03T16:12:48.088Z,2.73
2018-09-03T16:15:16.734Z,2.53
2018-09-03T16:17:45.324Z,2.73
2018-09-03T16:20:14.277Z,2.73
2018-09-03T16:22:43.013Z,2.90
2018-09-03T16:25:11.713Z,2.93
2018-09-03T16:27:40.450Z,2.40
2018-09-03T16:33:02.394Z,3.10
2018-09-03T16:35:31.018Z,2.50
2018-09-03T16:37:59.674Z,2.23
2018-09-03T16:40:28.334Z,2.87
2018-09-03T16:42:56.951Z,2.60
2018-09-03T16:45:25.547Z,2.63
2018-09-03T16:47:54.176Z,2.63
2018-09-03T16:50:22.815Z,2.67
2018-09-03T16:52:51.483Z,2.30
2018-09-03T16:55:20.212Z,2.30
2018-09-03T16:57:48.802Z,2.90
2018-09-03T17:00:17.459Z,3.27
2018-09-03T17:02:46.063Z,2.57
2018-09-03T17:05:14.815Z,2.60
2018-09-03T17:07:43.573Z,2.43
2018-09-03T17:10:11.961Z,2.43
2018-09-03T17:12:40.606Z,2.83
2018-09-03T17:15:09.259Z,2.40
2018-09-03T17:17:37.869Z,2.53
2018-09-03T17:20:06.599Z,2.63
2018-09-03T17:22:35.294Z,2.90
2018-09-03T17:25:03.986Z,2.80
2018-09-03T17:27:32.643Z,2.50
2018-09-03T17:30:01.306Z,2.80
2018-09-03T17:32:30.051Z,2.60
2018-09-03T17:34:58.736Z,2.83
2018-09-03T17:37:27.374Z,2.70
2018-09-03T17:39:56.039Z,2.30
2018-09-03T17:42:24.906Z,2.80
2018-09-03T17:44:53.634Z,3.63
2018-09-03T17:47:22.282Z,3.20
2018-09-03T17:49:51.004Z,3.00
2018-09-03T17:52:19.531Z,2.50
2018-09-03T17:54:48.193Z,2.57
2018-09-03T17:57:16.754Z,2.80
2018-09-03T17:59:45.371Z,2.93
2018-09-03T18:02:14.166Z,2.60
2018-09-03T18:04:42.968Z,2.57
2018-09-03T18:07:11.561Z,3.00
2018-09-03T18:09:40.281Z,2.73
2018-09-03T18:12:08.932Z,2.60
2018-09-03T18:14:37.602Z,2.73
2018-09-03T18:17:06.272Z,3.80
2018-09-03T18:19:34.931Z,3.73
2018-09-03T18:22:03.570Z,3.20
2018-09-03T18:24:32.190Z,11.27
2018-09-03T18:27:00.815Z,3.17
2018-09-03T18:29:29.407Z,3.30
2018-09-03T18:32:07.351Z,3.10
2018-09-03T18:34:36.003Z,3.30
2018-09-03T18:37:04.631Z,3.20
2018-09-03T18:39:33.242Z,2.80
2018-09-03T18:42:01.967Z,3.20
2018-09-03T18:44:30.547Z,3.00
2018-09-03T18:46:59.182Z,3.13
2018-09-03T18:49:27.826Z,2.60
2018-09-03T18:51:56.431Z,2.53
2018-09-03T18:54:25.063Z,2.37
2018-09-03T18:56:53.687Z,2.90
2018-09-03T18:59:22.395Z,3.00
2018-09-03T19:01:51.026Z,3.10
2018-09-03T19:04:19.597Z,3.20
2018-09-03T19:06:48.285Z,3.23
2018-09-03T19:09:16.858Z,2.87
2018-09-03T19:11:45.483Z,2.77
2018-09-03T19:14:14.109Z,2.50
2018-09-03T19:16:42.782Z,2.73
2018-09-03T19:19:11.467Z,2.53
2018-09-03T19:21:40.141Z,2.70
2018-09-03T19:24:09.054Z,3.07
2018-09-03T19:26:37.681Z,3.40
2018-09-03T19:29:06.415Z,2.60
2018-09-03T19:31:35.054Z,3.00
2018-09-03T19:34:03.627Z,2.57
2018-09-03T19:36:32.320Z,2.93
2018-09-03T19:39:00.900Z,3.30
2018-09-03T19:41:29.501Z,3.00
2018-09-03T19:43:58.103Z,2.87
2018-09-03T19:46:26.707Z,2.73
2018-09-03T19:48:55.259Z,3.40
2018-09-03T19:51:24.003Z,3.33
2018-09-03T19:53:52.594Z,3.10
2018-09-03T19:56:21.191Z,3.00
2018-09-03T19:58:49.835Z,3.20
2018-09-03T20:01:18.515Z,3.40
2018-09-03T20:03:47.152Z,2.90
2018-09-03T20:06:15.764Z,3.00
2018-09-03T20:08:44.491Z,2.80
2018-09-03T20:11:13.119Z,3.07
2018-09-03T20:13:41.727Z,3.10
2018-09-03T20:16:10.388Z,3.17
2018-09-03T20:18:39.024Z,2.87
2018-09-03T20:21:07.654Z,2.93
2018-09-03T20:23:36.537Z,2.70
2018-09-03T20:26:05.116Z,2.80
2018-09-03T20:28:33.809Z,3.03
2018-09-03T20:31:02.397Z,2.97
2018-09-03T20:33:31.076Z,3.07
2018-09-03T20:35:59.654Z,2.97
2018-09-03T20:38:28.286Z,3.30
2018-09-03T20:40:56.947Z,2.90
2018-09-03T20:43:25.599Z,2.90
2018-09-03T20:45:54.246Z,2.50
2018-09-03T20:48:22.952Z,2.60
2018-09-03T20:50:51.559Z,2.80
2018-09-03T20:53:20.149Z,2.83
2018-09-03T20:55:48.806Z,3.00
2018-09-03T20:58:17.402Z,2.77
2018-09-03T21:00:46.027Z,2.67
2018-09-03T21:03:14.671Z,2.80
2018-09-03T21:05:43.351Z,3.03
2018-09-03T21:08:11.960Z,2.80
2018-09-03T21:10:40.599Z,2.80
2018-09-03T21:13:09.229Z,2.90
2018-09-03T21:15:38.470Z,3.00
2018-09-03T21:18:07.231Z,3.10
2018-09-03T21:20:37.335Z,2.90
2018-09-03T21:23:05.974Z,2.90
2018-09-03T21:25:34.596Z,2.87
2018-09-03T21:28:03.194Z,2.50
2018-09-03T21:30:31.771Z,3.00
2018-09-03T21:33:00.445Z,3.10
2018-09-03T21:35:29.160Z,2.60
2018-09-03T21:37:57.798Z,3.27
2018-09-03T21:40:26.500Z,3.30
2018-09-03T21:42:55.180Z,3.20
2018-09-03T21:45:23.742Z,3.37
2018-09-03T21:47:52.363Z,3.47
2018-09-03T21:50:21.108Z,3.40
2018-09-03T21:52:49.717Z,3.30
2018-09-03T21:55:18.300Z,3.17
2018-09-03T21:57:47.396Z,3.03
2018-09-03T22:00:16.131Z,3.30
2018-09-03T22:02:45.458Z,3.10
2018-09-03T22:05:14.115Z,2.93
2018-09-03T22:07:42.734Z,3.40
2018-09-03T22:10:11.262Z,3.50
2018-09-03T22:12:39.887Z,3.30
2018-09-03T22:15:08.546Z,3.20
2018-09-03T22:17:37.085Z,3.40
2018-09-03T22:20:05.777Z,2.93
2018-09-03T22:22:34.415Z,3.53
2018-09-03T22:25:03.095Z,2.97
2018-09-03T22:27:31.727Z,3.23
2018-09-03T22:30:00.502Z,3.60
2018-09-03T22:32:29.062Z,3.27
2018-09-03T22:34:57.667Z,3.07
2018-09-03T22:37:26.268Z,3.13
2018-09-03T22:39:54.923Z,3.40
2018-09-03T22:42:26.262Z,3.37
2018-09-03T22:44:55.776Z,3.30
2018-09-03T22:47:24.574Z,3.23
2018-09-03T22:49:53.324Z,3.30
2018-09-03T22:52:22.033Z,2.80
2018-09-03T22:54:50.662Z,2.83
2018-09-03T22:57:19.364Z,3.07
2018-09-03T22:59:48.009Z,3.10
2018-09-03T23:02:16.696Z,3.10
2018-09-03T23:04:45.379Z,3.30
2018-09-03T23:07:14.087Z,3.07
2018-09-03T23:09:42.735Z,2.90
2018-09-03T23:12:11.438Z,3.00
2018-09-03T23:14:40.024Z,3.07
2018-09-03T23:17:08.710Z,2.97
2018-09-03T23:19:37.385Z,3.00
2018-09-03T23:22:11.138Z,3.50
2018-09-03T23:24:39.787Z,3.40
2018-09-03T23:27:08.398Z,3.50
2018-09-03T23:29:37.027Z,3.40
2018-09-03T23:32:05.886Z,3.60
2018-09-03T23:34:34.490Z,3.20
2018-09-03T23:37:03.210Z,3.47
2018-09-03T23:39:31.878Z,3.20
2018-09-03T23:42:00.551Z,3.70
2018-09-03T23:44:29.152Z,3.77
2018-09-03T23:46:57.807Z,4.00
2018-09-03T23:49:26.419Z,3.30
2018-09-03T23:51:55.023Z,3.77
2018-09-03T23:54:23.600Z,4.10
2018-09-03T23:56:52.168Z,3.60
2018-09-03T23:59:20.782Z,3.40
